sensor_id;sensor_type;location;lat;lon;timestamp;P1;durP1;ratioP1;P2;durP2;ratioP2
70707;SDS011;58277;47.316;18.908;2023-04-07T00:01:55;30.63;;;14.65;;
70707;SDS011;58277;47.316;18.908;2023-04-07T00:04:18;32.20;;;15.07;;
70707;SDS011;58277;47.316;18.908;2023-04-07T00:06:41;31.90;;;14.73;;
70707;SDS011;58277;47.316;18.908;2023-04-07T00:09:04;34.22;;;15.45;;
70707;SDS011;58277;47.316;18.908;2023-04-07T00:11:27;31.60;;;14.40;;
70707;SDS011;58277;47.316;18.908;2023-04-07T00:13:54;32.25;;;14.65;;
70707;SDS011;58277;47.316;18.908;2023-04-07T00:16:17;32.50;;;14.90;;
70707;SDS011;58277;47.316;18.908;2023-04-07T00:18:40;35.78;;;14.70;;
70707;SDS011;58277;47.316;18.908;2023-04-07T00:21:03;32.72;;;14.63;;
70707;SDS011;58277;47.316;18.908;2023-04-07T00:23:26;32.25;;;15.25;;
70707;SDS011;58277;47.316;18.908;2023-04-07T00:25:49;35.45;;;15.35;;
70707;SDS011;58277;47.316;18.908;2023-04-07T00:28:11;34.53;;;15.10;;
70707;SDS011;58277;47.316;18.908;2023-04-07T00:30:34;32.78;;;15.05;;
70707;SDS011;58277;47.316;18.908;2023-04-07T00:32:57;34.92;;;15.25;;
70707;SDS011;58277;47.316;18.908;2023-04-07T00:35:19;32.20;;;14.52;;
70707;SDS011;58277;47.316;18.908;2023-04-07T00:37:42;32.80;;;14.57;;
70707;SDS011;58277;47.316;18.908;2023-04-07T00:40:05;35.07;;;15.90;;
70707;SDS011;58277;47.316;18.908;2023-04-07T00:42:28;33.40;;;15.02;;
70707;SDS011;58277;47.316;18.908;2023-04-07T00:44:51;33.80;;;15.00;;
70707;SDS011;58277;47.316;18.908;2023-04-07T00:47:15;33.83;;;15.10;;
70707;SDS011;58277;47.316;18.908;2023-04-07T00:49:38;36.55;;;15.32;;
70707;SDS011;58277;47.316;18.908;2023-04-07T00:52:00;33.83;;;14.83;;
70707;SDS011;58277;47.316;18.908;2023-04-07T00:54:23;29.20;;;14.57;;
70707;SDS011;58277;47.316;18.908;2023-04-07T00:56:46;35.05;;;15.15;;
70707;SDS011;58277;47.316;18.908;2023-04-07T00:59:09;33.28;;;15.07;;
70707;SDS011;58277;47.316;18.908;2023-04-07T01:01:34;32.42;;;15.02;;
70707;SDS011;58277;47.316;18.908;2023-04-07T01:04:08;33.53;;;14.77;;
70707;SDS011;58277;47.316;18.908;2023-04-07T01:06:49;32.80;;;14.80;;
70707;SDS011;58277;47.316;18.908;2023-04-07T01:09:24;31.90;;;14.75;;
70707;SDS011;58277;47.316;18.908;2023-04-07T01:14:32;30.40;;;14.25;;
70707;SDS011;58277;47.316;18.908;2023-04-07T01:17:18;34.33;;;15.20;;
70707;SDS011;58277;47.316;18.908;2023-04-07T01:22:37;32.35;;;14.57;;
70707;SDS011;58277;47.316;18.908;2023-04-07T01:30:33;32.23;;;14.70;;
70707;SDS011;58277;47.316;18.908;2023-04-07T01:32:59;32.10;;;14.18;;
70707;SDS011;58277;47.316;18.908;2023-04-07T01:35:23;33.00;;;14.77;;
70707;SDS011;58277;47.316;18.908;2023-04-07T01:37:49;33.80;;;15.07;;
70707;SDS011;58277;47.316;18.908;2023-04-07T01:40:14;30.83;;;14.38;;
70707;SDS011;58277;47.316;18.908;2023-04-07T01:42:37;31.83;;;14.87;;
70707;SDS011;58277;47.316;18.908;2023-04-07T01:45:01;33.83;;;14.82;;
70707;SDS011;58277;47.316;18.908;2023-04-07T01:47:25;33.15;;;15.30;;
70707;SDS011;58277;47.316;18.908;2023-04-07T01:49:54;33.92;;;15.40;;
70707;SDS011;58277;47.316;18.908;2023-04-07T01:52:19;32.55;;;14.85;;
70707;SDS011;58277;47.316;18.908;2023-04-07T01:54:43;30.43;;;14.63;;
70707;SDS011;58277;47.316;18.908;2023-04-07T01:57:06;32.08;;;14.13;;
70707;SDS011;58277;47.316;18.908;2023-04-07T01:59:29;29.92;;;14.93;;
70707;SDS011;58277;47.316;18.908;2023-04-07T02:01:53;30.33;;;14.13;;
70707;SDS011;58277;47.316;18.908;2023-04-07T02:06:55;30.13;;;13.73;;
70707;SDS011;58277;47.316;18.908;2023-04-07T02:09:30;31.38;;;13.90;;
70707;SDS011;58277;47.316;18.908;2023-04-07T02:11:54;28.08;;;13.63;;
70707;SDS011;58277;47.316;18.908;2023-04-07T02:14:23;29.45;;;13.70;;
70707;SDS011;58277;47.316;18.908;2023-04-07T02:16:55;28.98;;;13.57;;
70707;SDS011;58277;47.316;18.908;2023-04-07T02:19:19;32.07;;;13.90;;
70707;SDS011;58277;47.316;18.908;2023-04-07T02:21:42;28.55;;;13.27;;
70707;SDS011;58277;47.316;18.908;2023-04-07T02:24:07;28.98;;;13.77;;
70707;SDS011;58277;47.316;18.908;2023-04-07T02:26:33;28.50;;;13.35;;
70707;SDS011;58277;47.316;18.908;2023-04-07T02:28:57;29.58;;;13.77;;
70707;SDS011;58277;47.316;18.908;2023-04-07T02:31:20;28.20;;;13.07;;
70707;SDS011;58277;47.316;18.908;2023-04-07T02:33:42;31.13;;;14.18;;
70707;SDS011;58277;47.316;18.908;2023-04-07T02:36:06;29.40;;;13.30;;
70707;SDS011;58277;47.316;18.908;2023-04-07T02:38:30;28.58;;;13.70;;
70707;SDS011;58277;47.316;18.908;2023-04-07T02:40:54;30.48;;;13.23;;
70707;SDS011;58277;47.316;18.908;2023-04-07T02:43:18;29.80;;;14.30;;
70707;SDS011;58277;47.316;18.908;2023-04-07T02:45:44;30.73;;;14.13;;
70707;SDS011;58277;47.316;18.908;2023-04-07T02:48:07;29.02;;;13.38;;
70707;SDS011;58277;47.316;18.908;2023-04-07T02:50:31;28.40;;;13.70;;
70707;SDS011;58277;47.316;18.908;2023-04-07T02:52:54;31.27;;;13.63;;
70707;SDS011;58277;47.316;18.908;2023-04-07T02:55:16;30.73;;;14.00;;
70707;SDS011;58277;47.316;18.908;2023-04-07T02:57:39;30.63;;;13.88;;
70707;SDS011;58277;47.316;18.908;2023-04-07T03:00:09;31.45;;;13.82;;
70707;SDS011;58277;47.316;18.908;2023-04-07T03:02:58;31.83;;;14.80;;
70707;SDS011;58277;47.316;18.908;2023-04-07T03:05:25;30.85;;;14.35;;
70707;SDS011;58277;47.316;18.908;2023-04-07T03:07:48;32.97;;;14.13;;
70707;SDS011;58277;47.316;18.908;2023-04-07T03:10:11;30.88;;;14.00;;
70707;SDS011;58277;47.316;18.908;2023-04-07T03:12:34;31.83;;;15.55;;
70707;SDS011;58277;47.316;18.908;2023-04-07T03:14:57;30.42;;;13.90;;
70707;SDS011;58277;47.316;18.908;2023-04-07T03:17:20;30.60;;;13.70;;
70707;SDS011;58277;47.316;18.908;2023-04-07T03:19:45;30.27;;;14.00;;
70707;SDS011;58277;47.316;18.908;2023-04-07T03:22:08;30.73;;;14.45;;
70707;SDS011;58277;47.316;18.908;2023-04-07T03:24:38;31.75;;;14.73;;
70707;SDS011;58277;47.316;18.908;2023-04-07T03:27:02;31.95;;;14.90;;
70707;SDS011;58277;47.316;18.908;2023-04-07T03:29:40;31.23;;;14.55;;
70707;SDS011;58277;47.316;18.908;2023-04-07T03:32:05;33.83;;;14.67;;
70707;SDS011;58277;47.316;18.908;2023-04-07T03:34:28;33.33;;;15.52;;
70707;SDS011;58277;47.316;18.908;2023-04-07T03:36:53;36.22;;;15.10;;
70707;SDS011;58277;47.316;18.908;2023-04-07T03:39:15;30.85;;;13.70;;
70707;SDS011;58277;47.316;18.908;2023-04-07T03:41:38;33.75;;;15.10;;
70707;SDS011;58277;47.316;18.908;2023-04-07T03:44:01;32.43;;;14.93;;
70707;SDS011;58277;47.316;18.908;2023-04-07T03:46:26;32.90;;;14.32;;
70707;SDS011;58277;47.316;18.908;2023-04-07T03:48:49;31.48;;;14.32;;
70707;SDS011;58277;47.316;18.908;2023-04-07T03:51:15;31.77;;;13.95;;
70707;SDS011;58277;47.316;18.908;2023-04-07T03:53:40;30.77;;;14.02;;
70707;SDS011;58277;47.316;18.908;2023-04-07T03:56:23;33.93;;;14.43;;
70707;SDS011;58277;47.316;18.908;2023-04-07T03:58:49;32.92;;;14.85;;
70707;SDS011;58277;47.316;18.908;2023-04-07T04:01:20;31.88;;;14.38;;
70707;SDS011;58277;47.316;18.908;2023-04-07T04:03:45;32.10;;;14.70;;
70707;SDS011;58277;47.316;18.908;2023-04-07T04:06:17;31.40;;;14.68;;
70707;SDS011;58277;47.316;18.908;2023-04-07T04:08:41;32.27;;;14.10;;
70707;SDS011;58277;47.316;18.908;2023-04-07T04:11:04;32.00;;;14.07;;
70707;SDS011;58277;47.316;18.908;2023-04-07T04:13:34;34.45;;;14.77;;
70707;SDS011;58277;47.316;18.908;2023-04-07T04:15:59;32.97;;;14.05;;
70707;SDS011;58277;47.316;18.908;2023-04-07T04:18:22;29.70;;;13.70;;
70707;SDS011;58277;47.316;18.908;2023-04-07T04:20:49;33.73;;;16.00;;
70707;SDS011;58277;47.316;18.908;2023-04-07T04:23:11;31.88;;;14.77;;
70707;SDS011;58277;47.316;18.908;2023-04-07T04:25:35;35.33;;;15.13;;
70707;SDS011;58277;47.316;18.908;2023-04-07T04:28:04;32.67;;;14.63;;
70707;SDS011;58277;47.316;18.908;2023-04-07T04:30:27;31.02;;;13.75;;
70707;SDS011;58277;47.316;18.908;2023-04-07T04:32:54;31.73;;;14.83;;
70707;SDS011;58277;47.316;18.908;2023-04-07T04:35:24;34.47;;;14.57;;
70707;SDS011;58277;47.316;18.908;2023-04-07T04:38:01;32.10;;;14.30;;
70707;SDS011;58277;47.316;18.908;2023-04-07T04:40:25;31.80;;;14.88;;
70707;SDS011;58277;47.316;18.908;2023-04-07T04:42:48;31.38;;;14.63;;
70707;SDS011;58277;47.316;18.908;2023-04-07T04:45:12;36.53;;;15.93;;
70707;SDS011;58277;47.316;18.908;2023-04-07T04:47:40;31.85;;;14.65;;
70707;SDS011;58277;47.316;18.908;2023-04-07T04:50:05;33.25;;;14.57;;
70707;SDS011;58277;47.316;18.908;2023-04-07T04:52:31;32.53;;;14.43;;
70707;SDS011;58277;47.316;18.908;2023-04-07T04:54:54;35.40;;;15.43;;
70707;SDS011;58277;47.316;18.908;2023-04-07T04:57:17;31.93;;;14.13;;
70707;SDS011;58277;47.316;18.908;2023-04-07T04:59:41;32.28;;;14.80;;
70707;SDS011;58277;47.316;18.908;2023-04-07T05:02:04;32.47;;;14.57;;
70707;SDS011;58277;47.316;18.908;2023-04-07T05:04:27;33.95;;;14.88;;
70707;SDS011;58277;47.316;18.908;2023-04-07T05:07:07;31.73;;;15.07;;
70707;SDS011;58277;47.316;18.908;2023-04-07T05:09:35;31.27;;;14.60;;
70707;SDS011;58277;47.316;18.908;2023-04-07T05:11:58;30.60;;;14.60;;
70707;SDS011;58277;47.316;18.908;2023-04-07T05:14:23;32.83;;;15.07;;
70707;SDS011;58277;47.316;18.908;2023-04-07T05:16:52;34.17;;;14.70;;
70707;SDS011;58277;47.316;18.908;2023-04-07T05:19:20;33.90;;;14.45;;
70707;SDS011;58277;47.316;18.908;2023-04-07T05:21:44;31.77;;;14.90;;
70707;SDS011;58277;47.316;18.908;2023-04-07T05:24:07;33.05;;;15.77;;
70707;SDS011;58277;47.316;18.908;2023-04-07T05:26:31;32.00;;;14.80;;
70707;SDS011;58277;47.316;18.908;2023-04-07T05:28:56;32.35;;;15.00;;
70707;SDS011;58277;47.316;18.908;2023-04-07T05:31:20;36.03;;;16.02;;
70707;SDS011;58277;47.316;18.908;2023-04-07T05:33:46;33.90;;;15.87;;
70707;SDS011;58277;47.316;18.908;2023-04-07T05:36:09;33.65;;;14.50;;
70707;SDS011;58277;47.316;18.908;2023-04-07T05:38:35;35.15;;;16.00;;
70707;SDS011;58277;47.316;18.908;2023-04-07T05:41:04;32.88;;;15.38;;
70707;SDS011;58277;47.316;18.908;2023-04-07T05:43:29;34.42;;;15.73;;
70707;SDS011;58277;47.316;18.908;2023-04-07T05:45:52;33.73;;;15.17;;
70707;SDS011;58277;47.316;18.908;2023-04-07T05:48:16;33.13;;;15.57;;
70707;SDS011;58277;47.316;18.908;2023-04-07T05:50:41;36.50;;;16.40;;
70707;SDS011;58277;47.316;18.908;2023-04-07T05:53:08;36.17;;;15.77;;
70707;SDS011;58277;47.316;18.908;2023-04-07T05:55:30;34.35;;;15.57;;
70707;SDS011;58277;47.316;18.908;2023-04-07T05:57:53;34.93;;;16.00;;
70707;SDS011;58277;47.316;18.908;2023-04-07T06:00:20;38.20;;;16.13;;
70707;SDS011;58277;47.316;18.908;2023-04-07T06:02:53;35.42;;;15.30;;
70707;SDS011;58277;47.316;18.908;2023-04-07T06:05:16;34.13;;;15.35;;
70707;SDS011;58277;47.316;18.908;2023-04-07T06:07:41;37.22;;;15.93;;
70707;SDS011;58277;47.316;18.908;2023-04-07T06:10:05;34.83;;;15.67;;
70707;SDS011;58277;47.316;18.908;2023-04-07T06:12:29;34.65;;;15.63;;
70707;SDS011;58277;47.316;18.908;2023-04-07T06:14:53;37.97;;;17.45;;
70707;SDS011;58277;47.316;18.908;2023-04-07T06:17:16;36.22;;;15.07;;
70707;SDS011;58277;47.316;18.908;2023-04-07T06:19:41;33.55;;;15.07;;
70707;SDS011;58277;47.316;18.908;2023-04-07T06:22:04;36.07;;;15.80;;
70707;SDS011;58277;47.316;18.908;2023-04-07T06:24:26;34.60;;;15.25;;
70707;SDS011;58277;47.316;18.908;2023-04-07T06:26:53;36.50;;;14.50;;
70707;SDS011;58277;47.316;18.908;2023-04-07T06:29:16;34.17;;;15.13;;
70707;SDS011;58277;47.316;18.908;2023-04-07T06:31:39;37.97;;;16.05;;
70707;SDS011;58277;47.316;18.908;2023-04-07T06:34:02;36.43;;;16.20;;
70707;SDS011;58277;47.316;18.908;2023-04-07T06:36:24;35.72;;;16.48;;
70707;SDS011;58277;47.316;18.908;2023-04-07T06:38:49;38.15;;;16.40;;
70707;SDS011;58277;47.316;18.908;2023-04-07T06:41:12;34.42;;;16.08;;
70707;SDS011;58277;47.316;18.908;2023-04-07T06:43:38;38.53;;;16.95;;
70707;SDS011;58277;47.316;18.908;2023-04-07T06:46:02;34.03;;;15.50;;
70707;SDS011;58277;47.316;18.908;2023-04-07T06:48:24;36.40;;;15.90;;
70707;SDS011;58277;47.316;18.908;2023-04-07T06:50:50;37.88;;;15.60;;
70707;SDS011;58277;47.316;18.908;2023-04-07T06:53:13;33.97;;;15.77;;
70707;SDS011;58277;47.316;18.908;2023-04-07T06:55:36;34.45;;;16.20;;
70707;SDS011;58277;47.316;18.908;2023-04-07T06:57:58;37.13;;;16.63;;
70707;SDS011;58277;47.316;18.908;2023-04-07T07:00:21;37.42;;;16.00;;
70707;SDS011;58277;47.316;18.908;2023-04-07T07:02:44;34.97;;;15.95;;
70707;SDS011;58277;47.316;18.908;2023-04-07T07:05:07;35.10;;;15.48;;
70707;SDS011;58277;47.316;18.908;2023-04-07T07:07:30;33.97;;;15.15;;
70707;SDS011;58277;47.316;18.908;2023-04-07T07:09:54;36.23;;;16.30;;
70707;SDS011;58277;47.316;18.908;2023-04-07T07:12:16;33.28;;;14.95;;
70707;SDS011;58277;47.316;18.908;2023-04-07T07:14:39;40.63;;;16.75;;
70707;SDS011;58277;47.316;18.908;2023-04-07T07:17:02;35.90;;;16.85;;
70707;SDS011;58277;47.316;18.908;2023-04-07T07:19:24;34.25;;;15.57;;
70707;SDS011;58277;47.316;18.908;2023-04-07T07:21:47;32.93;;;15.00;;
70707;SDS011;58277;47.316;18.908;2023-04-07T07:24:10;33.13;;;14.95;;
70707;SDS011;58277;47.316;18.908;2023-04-07T07:26:32;33.90;;;15.55;;
70707;SDS011;58277;47.316;18.908;2023-04-07T07:28:55;36.53;;;16.02;;
70707;SDS011;58277;47.316;18.908;2023-04-07T07:31:18;34.00;;;16.25;;
70707;SDS011;58277;47.316;18.908;2023-04-07T07:33:41;34.10;;;15.20;;
70707;SDS011;58277;47.316;18.908;2023-04-07T07:36:06;36.47;;;15.93;;
70707;SDS011;58277;47.316;18.908;2023-04-07T07:38:29;34.28;;;15.93;;
70707;SDS011;58277;47.316;18.908;2023-04-07T07:40:52;37.35;;;16.60;;
70707;SDS011;58277;47.316;18.908;2023-04-07T07:43:14;34.25;;;15.15;;
70707;SDS011;58277;47.316;18.908;2023-04-07T07:45:39;38.00;;;16.13;;
70707;SDS011;58277;47.316;18.908;2023-04-07T07:48:02;35.03;;;16.17;;
70707;SDS011;58277;47.316;18.908;2023-04-07T07:50:25;35.35;;;15.95;;
70707;SDS011;58277;47.316;18.908;2023-04-07T07:52:47;36.03;;;16.92;;
70707;SDS011;58277;47.316;18.908;2023-04-07T07:55:10;34.47;;;15.55;;
70707;SDS011;58277;47.316;18.908;2023-04-07T07:57:33;37.47;;;16.47;;
70707;SDS011;58277;47.316;18.908;2023-04-07T07:59:56;34.15;;;15.63;;
70707;SDS011;58277;47.316;18.908;2023-04-07T08:02:19;40.45;;;16.58;;
70707;SDS011;58277;47.316;18.908;2023-04-07T08:04:42;37.00;;;15.98;;
70707;SDS011;58277;47.316;18.908;2023-04-07T08:07:04;36.67;;;16.58;;
70707;SDS011;58277;47.316;18.908;2023-04-07T08:09:27;36.10;;;16.57;;
70707;SDS011;58277;47.316;18.908;2023-04-07T08:11:51;35.55;;;15.57;;
70707;SDS011;58277;47.316;18.908;2023-04-07T08:14:14;35.15;;;16.70;;
70707;SDS011;58277;47.316;18.908;2023-04-07T08:16:37;36.22;;;15.93;;
70707;SDS011;58277;47.316;18.908;2023-04-07T08:19:00;35.50;;;16.67;;
70707;SDS011;58277;47.316;18.908;2023-04-07T08:21:23;36.23;;;16.40;;
70707;SDS011;58277;47.316;18.908;2023-04-07T08:23:45;33.90;;;16.35;;
70707;SDS011;58277;47.316;18.908;2023-04-07T08:26:08;34.90;;;16.05;;
70707;SDS011;58277;47.316;18.908;2023-04-07T08:28:31;38.20;;;16.67;;
70707;SDS011;58277;47.316;18.908;2023-04-07T08:30:54;35.33;;;16.98;;
70707;SDS011;58277;47.316;18.908;2023-04-07T08:33:22;38.10;;;16.83;;
70707;SDS011;58277;47.316;18.908;2023-04-07T08:35:45;34.95;;;16.45;;
70707;SDS011;58277;47.316;18.908;2023-04-07T08:38:09;36.03;;;16.77;;
70707;SDS011;58277;47.316;18.908;2023-04-07T08:40:32;34.25;;;16.08;;
70707;SDS011;58277;47.316;18.908;2023-04-07T08:42:55;36.35;;;16.20;;
70707;SDS011;58277;47.316;18.908;2023-04-07T08:45:20;36.27;;;17.77;;
70707;SDS011;58277;47.316;18.908;2023-04-07T08:47:43;37.65;;;16.42;;
70707;SDS011;58277;47.316;18.908;2023-04-07T08:50:10;35.45;;;16.85;;
70707;SDS011;58277;47.316;18.908;2023-04-07T08:55:02;35.53;;;16.70;;
70707;SDS011;58277;47.316;18.908;2023-04-07T08:57:26;34.10;;;16.63;;
70707;SDS011;58277;47.316;18.908;2023-04-07T08:59:56;35.03;;;16.70;;
70707;SDS011;58277;47.316;18.908;2023-04-07T09:02:22;40.35;;;17.73;;
70707;SDS011;58277;47.316;18.908;2023-04-07T09:04:45;36.03;;;17.27;;
70707;SDS011;58277;47.316;18.908;2023-04-07T09:07:08;35.50;;;16.92;;
70707;SDS011;58277;47.316;18.908;2023-04-07T09:09:31;33.27;;;16.47;;
70707;SDS011;58277;47.316;18.908;2023-04-07T09:11:53;37.97;;;17.30;;
70707;SDS011;58277;47.316;18.908;2023-04-07T09:14:16;32.35;;;16.25;;
70707;SDS011;58277;47.316;18.908;2023-04-07T09:16:40;34.22;;;17.45;;
70707;SDS011;58277;47.316;18.908;2023-04-07T09:19:03;34.55;;;16.35;;
70707;SDS011;58277;47.316;18.908;2023-04-07T09:21:26;34.77;;;16.80;;
70707;SDS011;58277;47.316;18.908;2023-04-07T09:24:24;35.28;;;16.67;;
70707;SDS011;58277;47.316;18.908;2023-04-07T09:26:48;35.97;;;16.00;;
70707;SDS011;58277;47.316;18.908;2023-04-07T09:29:10;34.63;;;17.17;;
70707;SDS011;58277;47.316;18.908;2023-04-07T09:31:49;35.25;;;17.25;;
70707;SDS011;58277;47.316;18.908;2023-04-07T09:34:34;35.70;;;17.33;;
70707;SDS011;58277;47.316;18.908;2023-04-07T09:36:57;36.63;;;17.80;;
70707;SDS011;58277;47.316;18.908;2023-04-07T09:39:20;35.38;;;17.35;;
70707;SDS011;58277;47.316;18.908;2023-04-07T09:41:43;34.63;;;16.25;;
70707;SDS011;58277;47.316;18.908;2023-04-07T09:44:06;38.13;;;17.58;;
70707;SDS011;58277;47.316;18.908;2023-04-07T09:46:29;33.87;;;16.40;;
70707;SDS011;58277;47.316;18.908;2023-04-07T09:49:00;35.92;;;16.95;;
70707;SDS011;58277;47.316;18.908;2023-04-07T09:51:29;36.80;;;16.65;;
70707;SDS011;58277;47.316;18.908;2023-04-07T09:53:52;38.53;;;17.55;;
70707;SDS011;58277;47.316;18.908;2023-04-07T09:56:16;36.75;;;17.33;;
70707;SDS011;58277;47.316;18.908;2023-04-07T09:58:40;37.37;;;17.97;;
70707;SDS011;58277;47.316;18.908;2023-04-07T10:01:06;38.90;;;18.08;;
70707;SDS011;58277;47.316;18.908;2023-04-07T10:03:31;35.33;;;17.02;;
70707;SDS011;58277;47.316;18.908;2023-04-07T10:05:55;34.42;;;17.67;;
70707;SDS011;58277;47.316;18.908;2023-04-07T10:08:18;35.25;;;17.02;;
70707;SDS011;58277;47.316;18.908;2023-04-07T10:10:41;34.27;;;16.80;;
70707;SDS011;58277;47.316;18.908;2023-04-07T10:13:05;34.85;;;17.25;;
70707;SDS011;58277;47.316;18.908;2023-04-07T10:15:28;35.45;;;17.02;;
70707;SDS011;58277;47.316;18.908;2023-04-07T10:17:51;34.75;;;17.30;;
70707;SDS011;58277;47.316;18.908;2023-04-07T10:20:16;33.58;;;17.58;;
70707;SDS011;58277;47.316;18.908;2023-04-07T10:22:42;33.10;;;17.40;;
70707;SDS011;58277;47.316;18.908;2023-04-07T10:25:07;33.85;;;16.42;;
70707;SDS011;58277;47.316;18.908;2023-04-07T10:27:34;36.17;;;17.40;;
70707;SDS011;58277;47.316;18.908;2023-04-07T10:30:00;33.20;;;16.70;;
70707;SDS011;58277;47.316;18.908;2023-04-07T10:32:30;33.58;;;16.83;;
70707;SDS011;58277;47.316;18.908;2023-04-07T10:37:16;34.42;;;17.08;;
70707;SDS011;58277;47.316;18.908;2023-04-07T10:39:42;32.67;;;16.60;;
70707;SDS011;58277;47.316;18.908;2023-04-07T10:42:05;34.85;;;16.67;;
70707;SDS011;58277;47.316;18.908;2023-04-07T10:49:22;37.50;;;16.88;;
70707;SDS011;58277;47.316;18.908;2023-04-07T10:52:20;36.70;;;17.70;;
70707;SDS011;58277;47.316;18.908;2023-04-07T10:54:30;35.08;;;17.27;;
70707;SDS011;58277;47.316;18.908;2023-04-07T10:59:24;30.33;;;14.80;;
70707;SDS011;58277;47.316;18.908;2023-04-07T11:01:49;31.95;;;15.57;;
70707;SDS011;58277;47.316;18.908;2023-04-07T11:04:37;30.77;;;14.73;;
70707;SDS011;58277;47.316;18.908;2023-04-07T11:07:00;31.27;;;15.15;;
70707;SDS011;58277;47.316;18.908;2023-04-07T11:09:23;31.23;;;16.15;;
70707;SDS011;58277;47.316;18.908;2023-04-07T11:11:47;32.83;;;16.33;;
70707;SDS011;58277;47.316;18.908;2023-04-07T11:14:10;30.30;;;15.38;;
70707;SDS011;58277;47.316;18.908;2023-04-07T11:16:34;31.42;;;14.75;;
70707;SDS011;58277;47.316;18.908;2023-04-07T11:18:58;31.48;;;15.45;;
70707;SDS011;58277;47.316;18.908;2023-04-07T11:21:21;30.73;;;15.27;;
70707;SDS011;58277;47.316;18.908;2023-04-07T11:23:45;30.33;;;14.63;;
70707;SDS011;58277;47.316;18.908;2023-04-07T11:26:11;30.30;;;14.73;;
70707;SDS011;58277;47.316;18.908;2023-04-07T11:28:35;30.58;;;15.00;;
70707;SDS011;58277;47.316;18.908;2023-04-07T11:31:20;26.08;;;13.88;;
70707;SDS011;58277;47.316;18.908;2023-04-07T11:33:44;29.02;;;14.35;;
70707;SDS011;58277;47.316;18.908;2023-04-07T11:36:15;28.47;;;14.40;;
70707;SDS011;58277;47.316;18.908;2023-04-07T11:38:48;27.80;;;13.80;;
70707;SDS011;58277;47.316;18.908;2023-04-07T11:41:11;26.98;;;13.68;;
70707;SDS011;58277;47.316;18.908;2023-04-07T11:43:35;28.92;;;14.95;;
70707;SDS011;58277;47.316;18.908;2023-04-07T11:46:14;27.30;;;14.02;;
70707;SDS011;58277;47.316;18.908;2023-04-07T11:48:39;27.97;;;14.13;;
70707;SDS011;58277;47.316;18.908;2023-04-07T11:51:03;29.50;;;14.25;;
70707;SDS011;58277;47.316;18.908;2023-04-07T11:53:31;31.30;;;15.80;;
70707;SDS011;58277;47.316;18.908;2023-04-07T11:56:01;29.55;;;15.90;;
70707;SDS011;58277;47.316;18.908;2023-04-07T11:58:31;32.05;;;16.25;;
70707;SDS011;58277;47.316;18.908;2023-04-07T12:00:57;33.88;;;17.42;;
70707;SDS011;58277;47.316;18.908;2023-04-07T12:03:20;32.30;;;16.30;;
70707;SDS011;58277;47.316;18.908;2023-04-07T12:05:44;33.13;;;15.70;;
70707;SDS011;58277;47.316;18.908;2023-04-07T12:08:07;30.63;;;14.88;;
70707;SDS011;58277;47.316;18.908;2023-04-07T12:10:29;31.20;;;14.77;;
70707;SDS011;58277;47.316;18.908;2023-04-07T12:12:54;30.83;;;15.13;;
70707;SDS011;58277;47.316;18.908;2023-04-07T12:15:20;30.05;;;15.15;;
70707;SDS011;58277;47.316;18.908;2023-04-07T12:17:44;30.33;;;14.90;;
70707;SDS011;58277;47.316;18.908;2023-04-07T12:20:11;26.98;;;13.80;;
70707;SDS011;58277;47.316;18.908;2023-04-07T12:22:34;30.02;;;14.98;;
70707;SDS011;58277;47.316;18.908;2023-04-07T12:24:57;29.87;;;14.70;;
70707;SDS011;58277;47.316;18.908;2023-04-07T12:27:20;30.55;;;14.80;;
70707;SDS011;58277;47.316;18.908;2023-04-07T12:30:02;30.58;;;14.07;;
70707;SDS011;58277;47.316;18.908;2023-04-07T12:32:25;28.23;;;14.25;;
70707;SDS011;58277;47.316;18.908;2023-04-07T12:34:48;29.05;;;14.00;;
70707;SDS011;58277;47.316;18.908;2023-04-07T12:37:11;29.27;;;14.80;;
70707;SDS011;58277;47.316;18.908;2023-04-07T12:39:35;31.02;;;14.43;;
70707;SDS011;58277;47.316;18.908;2023-04-07T12:41:58;29.33;;;14.45;;
70707;SDS011;58277;47.316;18.908;2023-04-07T12:44:20;29.58;;;14.60;;
70707;SDS011;58277;47.316;18.908;2023-04-07T12:46:43;28.58;;;14.70;;
70707;SDS011;58277;47.316;18.908;2023-04-07T12:49:07;28.03;;;14.13;;
70707;SDS011;58277;47.316;18.908;2023-04-07T12:51:30;28.63;;;14.55;;
70707;SDS011;58277;47.316;18.908;2023-04-07T12:53:54;30.48;;;14.38;;
70707;SDS011;58277;47.316;18.908;2023-04-07T12:56:17;28.73;;;14.38;;
70707;SDS011;58277;47.316;18.908;2023-04-07T12:58:40;27.67;;;14.20;;
70707;SDS011;58277;47.316;18.908;2023-04-07T13:01:03;28.93;;;14.37;;
70707;SDS011;58277;47.316;18.908;2023-04-07T13:03:25;28.73;;;14.73;;
70707;SDS011;58277;47.316;18.908;2023-04-07T13:05:48;30.30;;;14.32;;
70707;SDS011;58277;47.316;18.908;2023-04-07T13:08:11;29.52;;;15.18;;
70707;SDS011;58277;47.316;18.908;2023-04-07T13:10:36;29.30;;;15.20;;
70707;SDS011;58277;47.316;18.908;2023-04-07T13:12:59;30.38;;;15.70;;
70707;SDS011;58277;47.316;18.908;2023-04-07T13:15:22;28.52;;;14.57;;
70707;SDS011;58277;47.316;18.908;2023-04-07T13:17:46;30.20;;;15.48;;
70707;SDS011;58277;47.316;18.908;2023-04-07T13:20:08;29.90;;;14.95;;
70707;SDS011;58277;47.316;18.908;2023-04-07T13:22:34;27.27;;;14.45;;
70707;SDS011;58277;47.316;18.908;2023-04-07T13:24:57;28.35;;;14.27;;
70707;SDS011;58277;47.316;18.908;2023-04-07T13:27:22;28.90;;;14.93;;
70707;SDS011;58277;47.316;18.908;2023-04-07T13:29:47;31.08;;;15.02;;
70707;SDS011;58277;47.316;18.908;2023-04-07T13:32:10;28.38;;;15.20;;
70707;SDS011;58277;47.316;18.908;2023-04-07T13:34:36;28.00;;;14.18;;
70707;SDS011;58277;47.316;18.908;2023-04-07T13:37:03;28.83;;;13.80;;
70707;SDS011;58277;47.316;18.908;2023-04-07T13:39:27;26.40;;;13.45;;
70707;SDS011;58277;47.316;18.908;2023-04-07T13:41:49;27.00;;;13.57;;
70707;SDS011;58277;47.316;18.908;2023-04-07T13:44:12;28.70;;;14.50;;
70707;SDS011;58277;47.316;18.908;2023-04-07T13:46:35;28.25;;;14.40;;
70707;SDS011;58277;47.316;18.908;2023-04-07T13:48:58;27.73;;;13.87;;
70707;SDS011;58277;47.316;18.908;2023-04-07T13:51:20;28.10;;;14.10;;
70707;SDS011;58277;47.316;18.908;2023-04-07T13:53:43;27.92;;;14.27;;
70707;SDS011;58277;47.316;18.908;2023-04-07T13:56:07;28.75;;;14.43;;
70707;SDS011;58277;47.316;18.908;2023-04-07T13:58:30;32.72;;;15.02;;
70707;SDS011;58277;47.316;18.908;2023-04-07T14:00:53;30.03;;;15.57;;
70707;SDS011;58277;47.316;18.908;2023-04-07T14:03:16;30.02;;;15.05;;
70707;SDS011;58277;47.316;18.908;2023-04-07T14:05:39;31.90;;;15.55;;
70707;SDS011;58277;47.316;18.908;2023-04-07T14:08:02;29.13;;;15.00;;
70707;SDS011;58277;47.316;18.908;2023-04-07T14:10:25;30.58;;;15.63;;
70707;SDS011;58277;47.316;18.908;2023-04-07T14:12:48;32.87;;;14.97;;
70707;SDS011;58277;47.316;18.908;2023-04-07T14:15:11;30.95;;;15.05;;
70707;SDS011;58277;47.316;18.908;2023-04-07T14:17:33;34.15;;;16.00;;
70707;SDS011;58277;47.316;18.908;2023-04-07T14:19:58;34.15;;;16.08;;
70707;SDS011;58277;47.316;18.908;2023-04-07T14:22:20;32.95;;;15.95;;